Warning: Javascript must be enabled to use all the features on this page!


Page Loading - Please Wait...

Click to hideNews Bulletins

Peak Streamflow for the Nation

USGS 03217500 Scioto River at La Rue OH

Marion County, Ohio
Hydrologic Unit Code 05060001
Latitude  40°34'19", Longitude  83°23'03" NAD83
Drainage area 257  square miles
Gage datum 909.69 feet above NAVD88
Output formats
Table
Graph
Tab-separated file
peakfq (watstore) format
Reselect output format
Water
Year
Date Gage
Height
(feet)
Stream-
flow
(cfs)
1913 1913-03-26 17.80  
1927 1927-03-20 15.00 10,700
1928 1927-12-01 14.60 9,160
1929 1929-02-26 14.70 9,540
1930 1930-01-09 14.503 8,780
1931 1931-04-04 10.92 1,940
1932 1932-01-18 11.76 2,810
1933 1932-12-31 13.56 6,150
1934 1934-03-04 10.30 1,570
1935 1935-05-04 11.44 2,370
1938 1938-04-08 13.17 5,070
1939 1939-03-12 14.68 9,590
1940 1940-04-20 13.08 4,860
1941 1941-06-05 11.70 2,710
1942 1942-04-10 13.15 5,080
1943 1943-03-20 13.25 5,080
1944 1944-04-12 13.65 5,500
1945 1945-06-18 14.58 7,750
1946 1946-06-18 13.07 4,340
1947 1947-06-03 13.79 5,650
1948 1948-02-14 13.58 5,250
1949 1948-12-16 13.08 4,480
1950 1950-02-14 13.84 5,850
1951 1950-12-03 13.62 5,400
1959 1959-01-21 15.30 16,3007
2010 2010-03-11 11.333 2,690
2011 2011-02-28 14.13 7,440
2012 2011-12-06 12.75 4,330
2013 2013-04-12 12.596 4,050
2014 2013-12-22 14.18 7,610
2015 2015-06-16 13.82 7,830
2016 2016-06-24 13.47 6,640
2017 2017-05-06 12.83 5,230
2018 2018-04-04 12.60 4,770
2019 2018-11-02 13.84 7,760
2020 2020-05-20 12.38 4,360
?
  Peak Gage-Height Qualification Codes.
?
  Peak Streamflow Qualification Codes.